Time;durP1;ratioP1;P1;durP2;ratioP2;P2;SDS_P1;SDS_P2;PMS_P1;PMS_P2;Temp;Humidity;BMP_temperature;BMP_pressure;BME280_temperature;BME280_humidity;BME280_pressure;Samples;Min_cycle;Max_cycle;Signal;HPM_P1;HPM_P2
2022/03/15 00:00:30;;;;;;;20.92;9.63;;;;;;;6.10;nan;102638.63;10487024;28;20533;-66
2022/03/15 00:05:52;;;;;;;36.30;10.85;;;;;;;6.08;nan;102630.88;10480221;28;20052;-66
2022/03/15 00:11:14;;;;;;;32.53;10.43;;;;;;;6.09;nan;102631.75;10434910;28;20040;-66
2022/03/15 00:16:36;;;;;;;24.92;9.40;;;;;;;6.00;nan;102629.31;10437136;28;20057;-66
2022/03/15 00:21:58;;;;;;;21.33;9.95;;;;;;;5.90;nan;102630.34;10476564;28;20052;-66
2022/03/15 00:27:20;;;;;;;23.73;10.18;;;;;;;5.98;nan;102620.72;10476060;28;20052;-66
2022/03/15 00:32:43;;;;;;;22.45;9.52;;;;;;;5.94;nan;102622.50;10463190;28;20631;-66
2022/03/15 00:38:05;;;;;;;26.27;9.98;;;;;;;5.90;nan;102620.84;10438500;28;20052;-66
2022/03/15 00:43:26;;;;;;;26.20;9.90;;;;;;;5.89;nan;102620.88;10479881;28;20128;-66
2022/03/15 00:48:48;;;;;;;19.42;9.32;;;;;;;5.88;nan;102621.75;10471400;28;20053;-66
2022/03/15 00:54:10;;;;;;;19.98;9.75;;;;;;;5.80;nan;102629.63;10485902;28;20051;-66
2022/03/15 00:59:32;;;;;;;18.70;9.18;;;;;;;5.82;nan;102627.06;10477415;28;20048;-66
2022/03/15 01:04:53;;;;;;;23.48;9.15;;;;;;;5.70;nan;102629.78;10475086;28;20110;-66
2022/03/15 01:10:15;;;;;;;26.27;9.35;;;;;;;5.75;nan;102620.22;10467060;28;20094;-66
2022/03/15 01:15:44;;;;;;;17.23;9.15;;;;;;;5.69;nan;102625.47;10483582;28;20370;-66
2022/03/15 01:21:07;;;;;;;23.20;9.00;;;;;;;5.63;nan;102620.41;10436815;28;20857;-66
2022/03/15 01:26:28;;;;;;;20.20;9.85;;;;;;;5.61;nan;102622.16;10458897;28;20057;-66
2022/03/15 01:31:50;;;;;;;17.40;9.50;;;;;;;5.57;nan;102625.69;10455731;28;20053;-66
2022/03/15 01:37:12;;;;;;;20.10;9.50;;;;;;;5.49;nan;102617.19;10451824;28;20056;-66
2022/03/15 01:42:33;;;;;;;19.67;9.02;;;;;;;5.47;nan;102610.31;10483260;28;20101;-66
2022/03/15 01:47:55;;;;;;;26.30;9.95;;;;;;;5.49;nan;102612.03;10457997;28;20529;-66
2022/03/15 01:53:17;;;;;;;20.83;9.70;;;;;;;5.38;nan;102608.75;10476984;28;20086;-65
2022/03/15 01:58:38;;;;;;;23.35;9.70;;;;;;;5.35;nan;102603.63;10472742;28;20060;-66
2022/03/15 02:04:00;;;;;;;21.05;9.52;;;;;;;5.27;nan;102605.44;10474853;28;20052;-66
2022/03/15 02:09:22;;;;;;;23.38;9.07;;;;;;;5.25;nan;102612.38;10482517;28;20052;-66
2022/03/15 02:14:44;;;;;;;23.98;10.05;;;;;;;5.25;nan;102609.78;10480160;28;20059;-66
2022/03/15 02:20:09;;;;;;;24.70;9.85;;;;;;;5.22;nan;102604.69;10476701;28;20052;-66
2022/03/15 02:25:31;;;;;;;23.77;8.70;;;;;;;5.21;nan;102596.94;10449017;28;20053;-66
2022/03/15 02:30:54;;;;;;;19.40;9.60;;;;;;;5.23;nan;102602.94;10479153;28;20306;-66
2022/03/15 02:36:17;;;;;;;17.80;8.95;;;;;;;5.16;nan;102602.16;10479751;28;20049;-66
2022/03/15 02:41:39;;;;;;;22.05;9.15;;;;;;;5.19;nan;102593.50;10480526;28;20052;-65
2022/03/15 02:47:01;;;;;;;16.52;9.40;;;;;;;5.04;nan;102602.34;10458774;28;20064;-66
2022/03/15 02:52:25;;;;;;;17.25;8.93;;;;;;;5.01;nan;102597.22;10452989;28;20045;-66
2022/03/15 02:57:48;;;;;;;20.70;9.52;;;;;;;4.92;nan;102586.13;10479739;28;20060;-66
2022/03/15 03:03:09;;;;;;;20.42;9.55;;;;;;;4.92;nan;102587.00;10477851;28;20516;-66
2022/03/15 03:08:32;;;;;;;35.13;9.82;;;;;;;4.95;nan;102586.94;10464165;28;20144;-66
2022/03/15 03:13:56;;;;;;;24.77;9.05;;;;;;;4.95;nan;102586.94;10440453;28;20102;-66
2022/03/15 03:19:19;;;;;;;19.98;10.05;;;;;;;4.99;nan;102587.78;10465520;28;20052;-66
2022/03/15 03:24:42;;;;;;;23.55;9.57;;;;;;;4.91;nan;102590.47;10469452;28;20094;-66
2022/03/15 03:30:04;;;;;;;23.10;9.27;;;;;;;4.79;nan;102585.47;10478807;28;20106;-65
2022/03/15 03:35:27;;;;;;;29.20;10.18;;;;;;;4.72;nan;102576.94;10475785;28;20056;-65
2022/03/15 03:40:50;;;;;;;19.67;9.23;;;;;;;4.78;nan;102572.56;10482596;28;20520;-66
2022/03/15 03:46:11;;;;;;;23.08;9.90;;;;;;;4.89;nan;102568.97;10456366;28;20048;-66
2022/03/15 03:51:33;;;;;;;27.45;9.88;;;;;;;4.92;nan;102571.50;10483639;28;20044;-66
2022/03/15 03:56:55;;;;;;;21.67;10.07;;;;;;;4.81;nan;102570.78;10471455;28;20508;-66
2022/03/15 04:02:17;;;;;;;21.40;8.85;;;;;;;4.82;nan;102569.91;10465846;28;20049;-66
2022/03/15 04:07:40;;;;;;;19.88;8.80;;;;;;;4.79;nan;102572.56;10485903;28;20527;-65
2022/03/15 04:13:02;;;;;;;21.42;9.00;;;;;;;4.74;nan;102566.59;10476539;28;20052;-66
2022/03/15 04:18:24;;;;;;;21.33;9.70;;;;;;;4.77;nan;102561.38;10456708;28;20068;-65
2022/03/15 04:23:46;;;;;;;28.88;9.63;;;;;;;4.77;nan;102571.72;10513296;28;20054;-65
2022/03/15 04:29:08;;;;;;;21.27;10.10;;;;;;;4.64;nan;102568.47;10484526;28;20052;-65
2022/03/15 04:34:30;;;;;;;24.52;10.07;;;;;;;4.73;nan;102564.88;10475565;28;20065;-66
2022/03/15 04:39:53;;;;;;;17.20;9.63;;;;;;;4.79;nan;102553.59;10482567;28;20051;-66
2022/03/15 04:45:15;;;;;;;26.95;10.50;;;;;;;4.83;nan;102556.13;10511332;28;20048;-66
2022/03/15 04:50:37;;;;;;;23.13;9.48;;;;;;;4.86;nan;102555.25;10475487;28;20056;-66
2022/03/15 04:55:59;;;;;;;23.95;10.93;;;;;;;4.96;nan;102547.31;10452552;28;20053;-66
2022/03/15 05:01:21;;;;;;;30.17;11.63;;;;;;;5.06;nan;102548.91;10446159;28;20044;-66
2022/03/15 05:06:43;;;;;;;29.30;10.85;;;;;;;5.12;nan;102537.63;10459469;28;20048;-66
2022/03/15 05:12:05;;;;;;;27.73;11.10;;;;;;;5.28;nan;102537.34;10475188;28;20045;-66
2022/03/15 05:17:27;;;;;;;29.98;12.18;;;;;;;5.30;nan;102543.38;10474976;28;20516;-66
2022/03/15 05:22:49;;;;;;;33.50;12.60;;;;;;;5.27;nan;102548.56;10442400;28;20106;-66
2022/03/15 05:28:11;;;;;;;32.72;12.30;;;;;;;5.34;nan;102550.19;10433812;28;20068;-66
2022/03/15 05:33:33;;;;;;;24.30;13.23;;;;;;;5.48;nan;102549.97;10476304;28;20049;-65
2022/03/15 05:38:55;;;;;;;26.90;12.27;;;;;;;5.46;nan;102552.59;10448746;28;20049;-65
2022/03/15 05:44:17;;;;;;;27.88;12.13;;;;;;;5.45;nan;102545.69;10419442;28;20060;-65
2022/03/15 05:49:39;;;;;;;23.42;12.23;;;;;;;5.47;nan;102554.28;10481997;28;20717;-66
2022/03/15 05:55:01;;;;;;;29.40;13.30;;;;;;;5.51;nan;102553.38;10451352;28;20045;-66
2022/03/15 06:00:23;;;;;;;24.90;14.02;;;;;;;5.55;nan;102549.84;10436079;28;20048;-65
2022/03/15 06:05:45;;;;;;;25.75;13.48;;;;;;;5.55;nan;102555.00;10473796;28;20056;-65
2022/03/15 06:11:07;;;;;;;27.58;14.05;;;;;;;5.68;nan;102553.91;10481995;28;20415;-65
2022/03/15 06:16:29;;;;;;;26.13;14.50;;;;;;;5.71;nan;102544.41;10480663;28;20524;-65
2022/03/15 06:21:51;;;;;;;31.90;16.15;;;;;;;5.84;nan;102545.06;10477582;28;20041;-66
2022/03/15 06:27:13;;;;;;;28.13;15.05;;;;;;;5.67;nan;102552.25;10426169;28;20517;-66
2022/03/15 06:32:35;;;;;;;32.80;14.98;;;;;;;5.95;nan;102551.75;10461255;28;20048;-65
2022/03/15 06:38:01;;;;;;;32.97;15.88;;;;;;;5.95;nan;102553.50;10467904;28;20048;-66
2022/03/15 06:43:23;;;;;;;29.77;15.57;;;;;;;6.11;nan;102553.16;10515657;28;20060;-66
2022/03/15 06:48:45;;;;;;;31.92;15.38;;;;;;;6.12;nan;102548.84;10505024;28;20064;-66
2022/03/15 06:54:07;;;;;;;31.58;17.33;;;;;;;6.28;nan;102550.25;10486677;28;20067;-66
2022/03/15 06:59:28;;;;;;;37.45;17.88;;;;;;;6.41;nan;102550.00;10454449;28;20056;-66
2022/03/15 07:04:53;;;;;;;32.33;16.27;;;;;;;6.32;nan;102547.59;10472426;28;20621;-66
2022/03/15 07:10:17;;;;;;;29.27;17.40;;;;;;;6.42;nan;102548.25;10424355;28;20398;-65
2022/03/15 07:15:39;;;;;;;35.58;17.45;;;;;;;6.34;nan;102556.16;10439101;28;20052;-66
2022/03/15 07:21:01;;;;;;;34.67;18.23;;;;;;;6.54;nan;102542.84;10478585;28;20060;-66
2022/03/15 07:26:23;;;;;;;33.72;17.83;;;;;;;6.41;nan;102543.94;10453988;28;20469;-66
2022/03/15 07:31:45;;;;;;;31.30;17.45;;;;;;;6.50;nan;102536.00;10448615;28;20094;-65
2022/03/15 07:37:06;;;;;;;38.88;17.88;;;;;;;6.59;nan;102535.81;10422954;28;20521;-65
2022/03/15 07:42:29;;;;;;;34.20;18.80;;;;;;;6.92;nan;102539.38;10470713;28;20049;-65
2022/03/15 07:47:51;;;;;;;40.30;21.88;;;;;;;7.03;nan;102529.59;10444786;28;20073;-66
2022/03/15 07:53:13;;;;;;;39.95;20.83;;;;;;;7.21;nan;102528.31;10442938;28;20049;-66
2022/03/15 07:58:34;;;;;;;40.65;21.80;;;;;;;7.33;nan;102518.53;10521151;28;20056;-65
2022/03/15 08:03:56;;;;;;;40.55;21.33;;;;;;;7.35;nan;102527.13;10474823;28;20044;-65
2022/03/15 08:09:18;;;;;;;50.65;22.67;;;;;;;7.36;nan;102523.63;10476526;28;20052;-66
2022/03/15 08:14:40;;;;;;;44.08;21.38;;;;;;;7.39;nan;102523.56;10476617;28;20421;-66
2022/03/15 08:20:03;;;;;;;49.45;22.95;;;;;;;7.51;nan;102527.59;10474992;28;20053;-66
2022/03/15 08:25:25;;;;;;;53.88;22.75;;;;;;;7.64;nan;102529.84;10477081;28;20052;-66
2022/03/15 08:30:46;;;;;;;46.15;22.15;;;;;;;7.55;nan;102529.22;10446542;28;20782;-66
2022/03/15 08:36:08;;;;;;;41.58;21.50;;;;;;;7.67;nan;102525.41;10464869;28;20061;-65
2022/03/15 08:41:31;;;;;;;39.83;22.45;;;;;;;7.74;nan;102520.91;10473993;28;20079;-65
2022/03/15 08:46:53;;;;;;;40.03;21.52;;;;;;;7.64;nan;102529.84;10461336;28;20110;-65
2022/03/15 08:52:15;;;;;;;44.25;23.40;;;;;;;7.74;nan;102531.31;10420108;28;20094;-66
2022/03/15 08:57:37;;;;;;;39.95;20.90;;;;;;;7.63;nan;102522.94;10507102;28;20044;-66
2022/03/15 09:02:58;;;;;;;44.53;24.02;;;;;;;7.75;nan;102522.63;10525647;28;20451;-66
2022/03/15 09:08:20;;;;;;;45.08;22.90;;;;;;;7.92;nan;102510.06;10463688;28;20597;-66
2022/03/15 09:13:42;;;;;;;41.42;23.15;;;;;;;7.87;nan;102522.28;10421122;28;20485;-66
2022/03/15 09:19:06;;;;;;;43.72;24.52;;;;;;;8.12;nan;102502.59;10434111;28;20056;-66
2022/03/15 09:24:28;;;;;;;45.85;25.48;;;;;;;7.96;nan;102504.72;10434047;28;20049;-66
2022/03/15 09:29:50;;;;;;;42.63;24.20;;;;;;;8.15;nan;102502.50;10433746;28;20594;-66
2022/03/15 09:35:13;;;;;;;52.72;26.17;;;;;;;8.28;nan;102501.31;10439347;28;20052;-66
2022/03/15 09:40:36;;;;;;;46.80;26.90;;;;;;;8.41;nan;102493.09;10444752;28;20140;-66
2022/03/15 09:45:59;;;;;;;45.75;24.88;;;;;;;8.30;nan;102494.28;10524337;28;20043;-66
2022/03/15 09:51:41;;;;;;;48.38;25.00;;;;;;;8.51;nan;102491.94;10440978;28;20056;-66
2022/03/15 09:57:04;;;;;;;48.30;28.00;;;;;;;8.49;nan;102500.66;10462610;28;20114;-66
2022/03/15 10:02:26;;;;;;;46.45;27.00;;;;;;;8.65;nan;102488.03;10461154;28;20527;-66
2022/03/15 10:07:49;;;;;;;60.75;29.15;;;;;;;8.65;nan;102480.22;10480941;28;20057;-66
2022/03/15 10:13:10;;;;;;;54.38;29.60;;;;;;;8.91;nan;102477.66;10471445;28;20131;-66
2022/03/15 10:18:32;;;;;;;51.55;30.65;;;;;;;9.00;nan;102460.91;10440618;28;20404;-66
2022/03/15 10:23:55;;;;;;;58.40;30.02;;;;;;;9.03;nan;102460.81;10440180;28;20049;-66
2022/03/15 10:29:18;;;;;;;51.05;29.50;;;;;;;9.10;nan;102442.38;10447288;28;20121;-66
2022/03/15 10:34:40;;;;;;;51.53;30.75;;;;;;;9.27;nan;102440.06;10480498;28;20045;-66
2022/03/15 10:40:02;;;;;;;52.75;30.17;;;;;;;9.46;nan;102435.91;10487232;28;20610;-66
2022/03/15 10:45:24;;;;;;;62.17;31.85;;;;;;;9.57;nan;102424.25;10521796;28;20051;-66
2022/03/15 10:51:15;;;;;;;56.70;32.63;;;;;;;9.74;nan;102418.47;10487707;28;20165;-65
2022/03/15 10:56:38;;;;;;;53.28;31.65;;;;;;;9.91;nan;102413.47;10494503;28;20052;-66
2022/03/15 11:02:00;;;;;;;50.20;29.08;;;;;;;9.77;nan;102407.91;10455147;28;20051;-66
2022/03/15 11:07:22;;;;;;;52.78;30.77;;;;;;;9.84;nan;102412.00;10456245;28;20053;-66
2022/03/15 11:13:17;;;;;;;54.30;30.13;;;;;;;10.01;nan;102409.66;10437861;28;20056;-66
2022/03/15 11:18:40;;;;;;;55.70;30.77;;;;;;;10.05;nan;102400.81;10453583;28;20060;-66
2022/03/15 11:24:07;;;;;;;54.05;29.50;;;;;;;10.03;nan;102400.06;10474315;28;20041;-64
2022/03/15 11:29:32;;;;;;;53.90;30.35;;;;;;;10.14;nan;102390.91;10437592;28;20056;-65
2022/03/15 11:34:54;;;;;;;50.37;30.03;;;;;;;10.22;nan;102393.22;10435490;28;20049;-66
2022/03/15 11:40:18;;;;;;;51.10;29.65;;;;;;;10.34;nan;102387.53;10463010;28;20443;-65
2022/03/15 11:45:53;;;;;;;56.92;30.27;;;;;;;10.35;nan;102384.88;10477343;28;20051;-66
2022/03/15 11:51:41;;;;;;;50.93;30.57;;;;;;;10.52;nan;102376.38;10435966;28;20513;-66
2022/03/15 11:57:09;;;;;;;50.30;28.95;;;;;;;10.50;nan;102372.97;10506377;28;20053;-64
2022/03/15 12:02:39;;;;;;;50.47;29.17;;;;;;;10.50;nan;102362.56;10456912;28;20061;-66
2022/03/15 12:08:15;;;;;;;48.60;29.00;;;;;;;10.58;nan;102351.78;10452709;28;20155;-66
2022/03/15 12:13:45;;;;;;;49.50;28.70;;;;;;;10.58;nan;102330.06;10435425;28;20055;-65
2022/03/15 12:19:23;;;;;;;45.97;28.48;;;;;;;10.52;nan;102325.94;10435668;28;20509;-65
2022/03/15 12:24:46;;;;;;;50.83;29.67;;;;;;;10.60;nan;102317.81;10435282;28;20480;-65
2022/03/15 12:30:09;;;;;;;46.78;27.75;;;;;;;10.47;nan;102316.63;10435715;28;20057;-65
2022/03/15 12:35:32;;;;;;;47.22;26.77;;;;;;;10.53;nan;102306.78;10474957;28;20056;-65
2022/03/15 12:40:54;;;;;;;43.80;25.88;;;;;;;10.61;nan;102296.03;10491656;28;20048;-65
2022/03/15 12:46:16;;;;;;;48.65;28.25;;;;;;;10.71;nan;102277.34;10434366;28;20068;-65
2022/03/15 12:51:41;;;;;;;50.05;27.70;;;;;;;10.79;nan;102275.25;10434476;28;20049;-65
2022/03/15 12:57:12;;;;;;;44.10;27.10;;;;;;;10.85;nan;102272.38;10498378;28;20220;-65
2022/03/15 13:02:37;;;;;;;48.25;27.90;;;;;;;10.91;nan;102263.44;10492265;28;20072;-65
2022/03/15 13:08:06;;;;;;;47.70;26.98;;;;;;;11.01;nan;102268.22;10474490;28;20056;-65
2022/03/15 13:13:29;;;;;;;46.17;26.85;;;;;;;11.12;nan;102255.53;10474277;28;20656;-65
2022/03/15 13:18:51;;;;;;;48.70;25.92;;;;;;;11.19;nan;102254.38;10457868;28;20057;-65
2022/03/15 13:24:12;;;;;;;43.72;27.38;;;;;;;11.19;nan;102250.88;10433068;28;20056;-64
2022/03/15 13:29:39;;;;;;;42.55;25.52;;;;;;;11.32;nan;102250.28;10434165;28;20055;-63
2022/03/15 13:35:01;;;;;;;44.65;26.40;;;;;;;11.31;nan;102245.97;10473856;28;20162;-64
2022/03/15 13:40:24;;;;;;;45.13;25.98;;;;;;;11.10;nan;102241.69;10484316;28;20052;-64
2022/03/15 13:45:46;;;;;;;44.90;25.98;;;;;;;11.29;nan;102242.59;10489755;28;20056;-63
2022/03/15 13:51:13;;;;;;;46.88;25.20;;;;;;;11.33;nan;102228.50;10432759;28;20053;-64
2022/03/15 13:56:51;;;;;;;44.97;25.23;;;;;;;11.31;nan;102225.09;10480873;28;20040;-63
2022/03/15 14:02:18;;;;;;;44.83;24.00;;;;;;;11.37;nan;102226.56;10487938;28;20057;-64
2022/03/15 14:07:44;;;;;;;44.47;25.15;;;;;;;11.44;nan;102222.75;10466177;28;20113;-64
2022/03/15 14:13:15;;;;;;;49.95;25.67;;;;;;;11.34;nan;102224.97;10473683;28;20067;-63
2022/03/15 14:18:38;;;;;;;45.88;25.52;;;;;;;11.33;nan;102220.66;10464952;28;20053;-63
2022/03/15 14:24:00;;;;;;;40.60;22.85;;;;;;;11.31;nan;102214.66;10459878;28;20060;-63
2022/03/15 14:29:28;;;;;;;40.83;25.45;;;;;;;11.27;nan;102202.66;10436440;28;20417;-63
2022/03/15 14:34:56;;;;;;;42.95;25.02;;;;;;;11.32;nan;102211.13;10472723;28;20044;-63
2022/03/15 14:40:20;;;;;;;48.45;26.00;;;;;;;11.33;nan;102212.81;10476813;28;20044;-63
2022/03/15 14:45:43;;;;;;;47.08;26.08;;;;;;;11.22;nan;102203.78;10477715;28;20056;-63
2022/03/15 14:51:05;;;;;;;43.90;24.73;;;;;;;11.19;nan;102211.75;10459691;28;20059;-64
2022/03/15 14:56:26;;;;;;;45.72;26.17;;;;;;;11.21;nan;102208.13;10467045;28;20044;-63
2022/03/15 15:01:48;;;;;;;42.35;25.48;;;;;;;11.14;nan;102211.94;10466867;28;20098;-64
2022/03/15 15:07:12;;;;;;;43.88;23.67;;;;;;;11.08;nan;102212.22;10463460;28;20114;-64
2022/03/15 15:12:33;;;;;;;45.40;24.70;;;;;;;11.04;nan;102215.91;10446044;28;20133;-63
2022/03/15 15:17:55;;;;;;;46.03;23.42;;;;;;;11.18;nan;102218.75;10432060;28;20056;-63
2022/03/15 15:23:18;;;;;;;43.45;23.52;;;;;;;11.16;nan;102217.09;10431917;28;20530;-62
2022/03/15 15:28:41;;;;;;;40.67;23.30;;;;;;;11.09;nan;102219.13;10431347;28;20056;-65
2022/03/15 15:34:05;;;;;;;44.50;24.50;;;;;;;11.10;nan;102220.81;10450519;28;20052;-65
2022/03/15 15:39:27;;;;;;;40.00;23.45;;;;;;;10.97;nan;102219.69;10435730;28;20044;-63
2022/03/15 15:44:52;;;;;;;47.45;24.13;;;;;;;11.05;nan;102216.72;10477178;28;20052;-62
2022/03/15 15:50:15;;;;;;;48.88;24.83;;;;;;;10.99;nan;102211.75;10489669;28;20052;-63
2022/03/15 15:55:42;;;;;;;40.60;25.02;;;;;;;10.96;nan;102209.31;10463369;28;20041;-63
2022/03/15 16:01:09;;;;;;;43.00;23.80;;;;;;;11.21;nan;102205.53;10461051;28;20056;-66
2022/03/15 16:06:31;;;;;;;42.42;24.15;;;;;;;11.30;nan;102206.88;10454315;28;20049;-65
2022/03/15 16:11:52;;;;;;;51.70;25.90;;;;;;;11.69;nan;102205.91;10459032;28;20397;-63
2022/03/15 16:17:19;;;;;;;48.10;26.93;;;;;;;11.71;nan;102198.84;10452530;28;20056;-63
2022/03/15 16:22:42;;;;;;;50.65;24.98;;;;;;;11.51;nan;102191.06;10445512;28;20107;-63
2022/03/15 16:28:04;;;;;;;43.15;22.63;;;;;;;11.32;nan;102205.91;10447017;28;20059;-64
2022/03/15 16:33:26;;;;;;;47.10;23.88;;;;;;;11.35;nan;102204.91;10463964;28;20060;-63
2022/03/15 16:38:48;;;;;;;46.35;23.02;;;;;;;11.29;nan;102221.69;10451976;28;20052;-64
2022/03/15 16:44:10;;;;;;;45.33;22.10;;;;;;;11.31;nan;102209.44;10458886;28;20053;-64
2022/03/15 16:49:32;;;;;;;42.28;22.23;;;;;;;11.35;nan;102211.00;10452405;28;20057;-64
2022/03/15 16:54:53;;;;;;;44.55;21.10;;;;;;;11.13;nan;102205.03;10465154;28;20048;-66
2022/03/15 17:00:15;;;;;;;43.13;22.52;;;;;;;10.91;nan;102199.09;10456623;28;20095;-64
2022/03/15 17:05:41;;;;;;;40.28;22.30;;;;;;;10.84;nan;102212.47;10456589;28;20044;-64
2022/03/15 17:11:03;;;;;;;49.00;22.13;;;;;;;10.87;nan;102214.91;10428374;28;20065;-64
2022/03/15 17:16:25;;;;;;;40.80;20.55;;;;;;;10.72;nan;102208.63;10460097;28;20048;-63
2022/03/15 17:21:47;;;;;;;40.45;20.17;;;;;;;10.68;nan;102214.88;10428071;28;20053;-65
2022/03/15 17:27:11;;;;;;;39.97;20.50;;;;;;;10.52;nan;102206.00;10427956;28;20048;-64
2022/03/15 17:32:33;;;;;;;42.13;20.55;;;;;;;10.39;nan;102204.00;10448760;28;20082;-65
2022/03/15 17:38:00;;;;;;;37.65;19.63;;;;;;;10.13;nan;102200.75;10467391;28;20599;-65
2022/03/15 17:43:25;;;;;;;35.05;18.48;;;;;;;10.07;nan;102195.78;10455841;28;20722;-65
2022/03/15 17:48:47;;;;;;;41.97;18.58;;;;;;;9.90;nan;102199.06;10414465;28;20057;-65
2022/03/15 17:54:11;;;;;;;34.85;17.38;;;;;;;9.80;nan;102202.06;10448650;28;20492;-65
2022/03/15 17:59:33;;;;;;;23.83;14.98;;;;;;;9.79;nan;102216.88;10436028;28;20045;-64
2022/03/15 18:05:06;;;;;;;23.75;13.77;;;;;;;9.62;nan;102224.47;10459256;28;20060;-63
2022/03/15 18:10:47;;;;;;;31.48;13.35;;;;;;;9.39;nan;102231.44;10471310;28;20052;-64
2022/03/15 18:16:14;;;;;;;22.83;12.80;;;;;;;9.27;nan;102238.84;10474479;28;20045;-64
2022/03/15 18:21:37;;;;;;;19.83;11.77;;;;;;;9.26;nan;102243.22;10463271;28;20056;-63
2022/03/15 18:26:59;;;;;;;20.65;11.98;;;;;;;9.11;nan;102235.97;10453954;28;20059;-63
2022/03/15 18:32:20;;;;;;;27.35;12.02;;;;;;;9.00;nan;102232.06;10455399;28;20507;-63
2022/03/15 18:37:58;;;;;;;21.48;11.50;;;;;;;8.85;nan;102240.38;10472127;28;20052;-63
2022/03/15 18:43:20;;;;;;;25.27;11.82;;;;;;;9.00;nan;102230.31;10483565;28;20052;-66
2022/03/15 18:48:42;;;;;;;22.80;11.43;;;;;;;8.79;nan;102241.47;10475083;28;20094;-66
2022/03/15 18:54:05;;;;;;;24.73;11.75;;;;;;;8.57;nan;102257.00;10468383;28;20627;-66
2022/03/15 18:59:27;;;;;;;26.15;12.45;;;;;;;8.50;nan;102260.69;10520581;28;20055;-65
2022/03/15 19:04:49;;;;;;;25.30;12.07;;;;;;;8.37;nan;102260.22;10465805;28;20374;-66
2022/03/15 19:10:11;;;;;;;22.02;11.70;;;;;;;8.43;nan;102267.00;10479703;28;20106;-65
2022/03/15 19:15:34;;;;;;;22.00;12.07;;;;;;;8.37;nan;102283.63;10478517;28;20051;-66
2022/03/15 19:20:56;;;;;;;23.55;12.18;;;;;;;8.24;nan;102269.31;10460298;28;20052;-65
2022/03/15 19:26:19;;;;;;;21.55;12.40;;;;;;;8.18;nan;102269.53;10437718;28;20052;-65
2022/03/15 19:31:42;;;;;;;23.52;12.98;;;;;;;8.05;nan;102277.72;10438137;28;20148;-64
2022/03/15 19:37:08;;;;;;;23.40;13.80;;;;;;;8.04;nan;102284.66;10478156;28;20098;-64
2022/03/15 19:42:34;;;;;;;29.27;15.13;;;;;;;8.00;nan;102287.41;10504849;28;20052;-64
2022/03/15 19:47:56;;;;;;;30.52;15.10;;;;;;;7.94;nan;102297.97;10500028;28;20060;-64
2022/03/15 19:53:18;;;;;;;29.15;16.00;;;;;;;7.91;nan;102290.28;10438588;28;20045;-64
2022/03/15 19:58:40;;;;;;;28.98;16.02;;;;;;;7.86;nan;102292.16;10495430;28;20056;-64
2022/03/15 20:04:02;;;;;;;28.98;15.73;;;;;;;7.75;nan;102289.91;10477420;28;20044;-64
2022/03/15 20:09:26;;;;;;;30.00;15.77;;;;;;;7.71;nan;102308.19;10476540;28;20048;-66
2022/03/15 20:14:50;;;;;;;31.25;16.23;;;;;;;7.70;nan;102301.31;10470550;28;20049;-64
2022/03/15 20:20:22;;;;;;;29.15;15.88;;;;;;;7.72;nan;102295.16;10422306;28;20398;-64
2022/03/15 20:25:48;;;;;;;33.78;16.38;;;;;;;7.62;nan;102292.88;10434206;28;20056;-64
2022/03/15 20:31:14;;;;;;;32.15;15.93;;;;;;;7.68;nan;102283.16;10441050;28;20045;-65
2022/03/15 20:36:38;;;;;;;29.10;15.20;;;;;;;7.68;nan;102277.97;10434625;28;20052;-64
2022/03/15 20:41:59;;;;;;;26.30;13.93;;;;;;;7.57;nan;102284.38;10484036;28;20060;-65
2022/03/15 20:47:23;;;;;;;32.22;15.32;;;;;;;7.65;nan;102282.41;10517531;28;20052;-66
2022/03/15 20:52:45;;;;;;;32.28;15.27;;;;;;;7.56;nan;102287.88;10482274;28;20056;-65
2022/03/15 20:58:06;;;;;;;30.40;14.82;;;;;;;7.54;nan;102291.41;10526090;28;20048;-64
2022/03/15 21:03:32;;;;;;;30.90;15.68;;;;;;;7.61;nan;102296.38;10475629;28;20528;-65
2022/03/15 21:08:54;;;;;;;30.05;15.50;;;;;;;7.62;nan;102298.06;10451926;28;20129;-65
2022/03/15 21:14:20;;;;;;;30.35;15.27;;;;;;;7.64;nan;102315.28;10488365;28;20089;-65
2022/03/15 21:19:50;;;;;;;28.80;16.02;;;;;;;7.48;nan;102320.97;10397167;28;20060;-65
2022/03/15 21:25:12;;;;;;;35.33;16.38;;;;;;;7.47;nan;102329.63;10380141;28;20140;-65
2022/03/15 21:30:35;;;;;;;35.78;17.13;;;;;;;7.57;nan;102328.47;10401455;28;20060;-65
2022/03/15 21:35:57;;;;;;;39.25;16.23;;;;;;;7.60;nan;102320.63;10455818;28;20390;-66
2022/03/15 21:41:24;;;;;;;28.77;16.52;;;;;;;7.59;nan;102333.66;10442086;28;20533;-65
2022/03/15 21:46:46;;;;;;;35.45;16.75;;;;;;;7.58;nan;102337.97;10441204;28;20420;-65
2022/03/15 21:52:08;;;;;;;29.48;15.65;;;;;;;7.55;nan;102342.41;10440402;28;20597;-65
2022/03/15 21:57:32;;;;;;;38.97;16.15;;;;;;;7.50;nan;102342.53;10440733;28;20045;-65
2022/03/15 22:02:54;;;;;;;32.28;15.77;;;;;;;7.36;nan;102347.25;10429641;28;20053;-66
2022/03/15 22:08:16;;;;;;;31.60;15.95;;;;;;;7.33;nan;102347.31;10451899;28;20080;-66
2022/03/15 22:13:39;;;;;;;30.63;16.35;;;;;;;7.24;nan;102350.19;10399670;28;20574;-66
2022/03/15 22:19:01;;;;;;;27.52;16.02;;;;;;;7.15;nan;102360.78;10399494;28;20057;-66
2022/03/15 22:24:24;;;;;;;32.65;16.40;;;;;;;7.19;nan;102367.59;10398887;28;20060;-66
2022/03/15 22:29:46;;;;;;;29.73;16.60;;;;;;;7.11;nan;102372.16;10413997;28;20056;-66
